sensor_id;sensor_type;location;lat;lon;timestamp;pressure;altitude;pressure_sealevel;temperature;humidity
59367;BME280;45163;47.690;11.770;2023-11-19T00:00:22;93423.56;;;3.51;100.00
59367;BME280;45163;47.690;11.770;2023-11-19T00:02:49;93418.91;;;3.55;100.00
59367;BME280;45163;47.690;11.770;2023-11-19T00:05:15;93412.00;;;3.40;100.00
59367;BME280;45163;47.690;11.770;2023-11-19T00:07:41;93423.94;;;3.46;100.00
59367;BME280;45163;47.690;11.770;2023-11-19T00:10:12;93425.50;;;3.47;100.00
59367;BME280;45163;47.690;11.770;2023-11-19T00:12:41;93417.03;;;3.52;100.00
59367;BME280;45163;47.690;11.770;2023-11-19T00:15:07;93417.00;;;3.45;100.00
59367;BME280;45163;47.690;11.770;2023-11-19T00:17:47;93410.84;;;3.44;100.00
59367;BME280;45163;47.690;11.770;2023-11-19T00:20:15;93415.09;;;3.35;100.00
59367;BME280;45163;47.690;11.770;2023-11-19T00:22:41;93400.06;;;3.41;100.00
59367;BME280;45163;47.690;11.770;2023-11-19T00:25:09;93411.25;;;3.43;100.00
59367;BME280;45163;47.690;11.770;2023-11-19T00:27:35;93403.13;;;3.54;100.00
59367;BME280;45163;47.690;11.770;2023-11-19T00:30:04;93410.06;;;3.55;100.00
59367;BME280;45163;47.690;11.770;2023-11-19T00:32:32;93400.81;;;3.52;100.00
59367;BME280;45163;47.690;11.770;2023-11-19T00:34:58;93398.50;;;3.54;100.00
59367;BME280;45163;47.690;11.770;2023-11-19T00:37:24;93391.56;;;3.53;100.00
59367;BME280;45163;47.690;11.770;2023-11-19T00:39:50;93396.56;;;3.62;100.00
59367;BME280;45163;47.690;11.770;2023-11-19T00:42:18;93387.69;;;3.58;100.00
59367;BME280;45163;47.690;11.770;2023-11-19T00:44:44;93387.34;;;3.52;100.00
59367;BME280;45163;47.690;11.770;2023-11-19T00:47:11;93394.25;;;3.64;100.00
59367;BME280;45163;47.690;11.770;2023-11-19T00:49:37;93381.94;;;3.48;100.00
59367;BME280;45163;47.690;11.770;2023-11-19T00:52:03;93374.59;;;3.38;100.00
59367;BME280;45163;47.690;11.770;2023-11-19T00:54:29;93366.50;;;3.42;100.00
59367;BME280;45163;47.690;11.770;2023-11-19T00:56:55;93363.44;;;3.47;100.00
59367;BME280;45163;47.690;11.770;2023-11-19T00:59:21;93358.06;;;3.47;100.00
59367;BME280;45163;47.690;11.770;2023-11-19T01:01:47;93368.06;;;3.54;100.00
59367;BME280;45163;47.690;11.770;2023-11-19T01:04:19;93374.25;;;3.47;100.00
59367;BME280;45163;47.690;11.770;2023-11-19T01:06:45;93366.91;;;3.47;100.00
59367;BME280;45163;47.690;11.770;2023-11-19T01:09:11;93363.44;;;3.43;100.00
59367;BME280;45163;47.690;11.770;2023-11-19T01:11:37;93364.59;;;3.49;100.00
59367;BME280;45163;47.690;11.770;2023-11-19T01:14:03;93369.97;;;3.49;100.00
59367;BME280;45163;47.690;11.770;2023-11-19T01:16:29;93368.81;;;3.50;100.00
59367;BME280;45163;47.690;11.770;2023-11-19T01:18:55;93366.88;;;3.55;100.00
59367;BME280;45163;47.690;11.770;2023-11-19T01:21:22;93359.94;;;3.64;100.00
59367;BME280;45163;47.690;11.770;2023-11-19T01:23:48;93352.97;;;3.70;100.00
59367;BME280;45163;47.690;11.770;2023-11-19T01:26:14;93361.84;;;3.74;100.00
59367;BME280;45163;47.690;11.770;2023-11-19T01:28:40;93358.00;;;3.68;100.00
59367;BME280;45163;47.690;11.770;2023-11-19T01:31:08;93344.88;;;3.63;100.00
59367;BME280;45163;47.690;11.770;2023-11-19T01:33:38;93349.88;;;3.72;100.00
59367;BME280;45163;47.690;11.770;2023-11-19T01:36:04;93365.66;;;3.84;100.00
59367;BME280;45163;47.690;11.770;2023-11-19T01:38:30;93354.50;;;3.86;100.00
59367;BME280;45163;47.690;11.770;2023-11-19T01:41:00;93367.22;;;3.82;100.00
59367;BME280;45163;47.690;11.770;2023-11-19T01:43:35;93352.19;;;3.77;100.00
59367;BME280;45163;47.690;11.770;2023-11-19T01:46:05;93357.19;;;3.82;100.00
59367;BME280;45163;47.690;11.770;2023-11-19T01:48:33;93350.25;;;3.81;100.00
59367;BME280;45163;47.690;11.770;2023-11-19T01:51:00;93350.25;;;3.85;100.00
59367;BME280;45163;47.690;11.770;2023-11-19T01:53:27;93343.69;;;3.82;100.00
59367;BME280;45163;47.690;11.770;2023-11-19T01:55:53;93346.41;;;3.75;100.00
59367;BME280;45163;47.690;11.770;2023-11-19T01:58:19;93342.56;;;3.72;100.00
59367;BME280;45163;47.690;11.770;2023-11-19T02:00:46;93335.59;;;3.82;100.00
59367;BME280;45163;47.690;11.770;2023-11-19T02:03:14;93323.63;;;3.80;100.00
59367;BME280;45163;47.690;11.770;2023-11-19T02:05:40;93334.44;;;3.83;100.00
59367;BME280;45163;47.690;11.770;2023-11-19T02:08:07;93337.53;;;3.78;100.00
59367;BME280;45163;47.690;11.770;2023-11-19T02:10:33;93341.00;;;3.86;100.00
59367;BME280;45163;47.690;11.770;2023-11-19T02:13:00;93327.50;;;3.79;100.00
59367;BME280;45163;47.690;11.770;2023-11-19T02:15:26;93342.56;;;3.72;100.00
59367;BME280;45163;47.690;11.770;2023-11-19T02:17:52;93329.44;;;3.71;100.00
59367;BME280;45163;47.690;11.770;2023-11-19T02:20:18;93325.56;;;3.83;100.00
59367;BME280;45163;47.690;11.770;2023-11-19T02:22:49;93327.16;;;3.73;100.00
59367;BME280;45163;47.690;11.770;2023-11-19T02:25:30;93327.09;;;3.84;100.00
59367;BME280;45163;47.690;11.770;2023-11-19T02:28:02;93321.28;;;3.92;100.00
59367;BME280;45163;47.690;11.770;2023-11-19T02:30:29;93317.03;;;3.98;100.00
59367;BME280;45163;47.690;11.770;2023-11-19T02:32:56;93303.22;;;3.79;100.00
59367;BME280;45163;47.690;11.770;2023-11-19T02:35:24;93319.00;;;3.84;100.00
59367;BME280;45163;47.690;11.770;2023-11-19T02:37:50;93300.50;;;3.86;100.00
59367;BME280;45163;47.690;11.770;2023-11-19T02:40:16;93301.59;;;3.92;100.00
59367;BME280;45163;47.690;11.770;2023-11-19T02:42:43;93310.88;;;3.91;100.00
59367;BME280;45163;47.690;11.770;2023-11-19T02:45:09;93296.63;;;3.83;100.00
59367;BME280;45163;47.690;11.770;2023-11-19T02:47:41;93286.59;;;3.87;100.00
59367;BME280;45163;47.690;11.770;2023-11-19T02:50:09;93280.84;;;3.78;100.00
59367;BME280;45163;47.690;11.770;2023-11-19T02:52:44;93283.50;;;3.89;100.00
59367;BME280;45163;47.690;11.770;2023-11-19T02:55:12;93285.06;;;3.86;100.00
59367;BME280;45163;47.690;11.770;2023-11-19T02:57:41;93287.00;;;3.82;100.00
59367;BME280;45163;47.690;11.770;2023-11-19T03:00:21;93261.91;;;3.89;100.00
59367;BME280;45163;47.690;11.770;2023-11-19T03:02:51;93256.88;;;3.91;100.00
59367;BME280;45163;47.690;11.770;2023-11-19T03:05:31;93250.69;;;3.94;100.00
59367;BME280;45163;47.690;11.770;2023-11-19T03:07:57;93247.59;;;3.92;100.00
59367;BME280;45163;47.690;11.770;2023-11-19T03:10:23;93237.63;;;3.89;100.00
59367;BME280;45163;47.690;11.770;2023-11-19T03:12:50;93241.84;;;3.90;100.00
59367;BME280;45163;47.690;11.770;2023-11-19T03:15:15;93225.22;;;3.98;100.00
59367;BME280;45163;47.690;11.770;2023-11-19T03:17:42;93227.50;;;4.04;100.00
59367;BME280;45163;47.690;11.770;2023-11-19T03:20:10;93224.03;;;3.99;100.00
59367;BME280;45163;47.690;11.770;2023-11-19T03:22:37;93229.88;;;3.94;100.00
59367;BME280;45163;47.690;11.770;2023-11-19T03:25:04;93222.09;;;4.00;100.00
59367;BME280;45163;47.690;11.770;2023-11-19T03:27:30;93212.84;;;4.01;100.00
59367;BME280;45163;47.690;11.770;2023-11-19T03:29:56;93219.72;;;4.13;100.00
59367;BME280;45163;47.690;11.770;2023-11-19T03:32:22;93210.44;;;4.14;100.00
59367;BME280;45163;47.690;11.770;2023-11-19T03:34:48;93224.28;;;4.27;100.00
59367;BME280;45163;47.690;11.770;2023-11-19T03:37:14;93218.91;;;4.23;100.00
59367;BME280;45163;47.690;11.770;2023-11-19T03:39:43;93213.09;;;4.24;100.00
59367;BME280;45163;47.690;11.770;2023-11-19T03:42:09;93222.31;;;4.31;100.00
59367;BME280;45163;47.690;11.770;2023-11-19T03:44:35;93220.75;;;4.33;100.00
59367;BME280;45163;47.690;11.770;2023-11-19T03:47:01;93235.41;;;4.36;100.00
59367;BME280;45163;47.690;11.770;2023-11-19T03:49:26;93223.84;;;4.35;100.00
59367;BME280;45163;47.690;11.770;2023-11-19T03:51:54;93218.50;;;4.21;100.00
59367;BME280;45163;47.690;11.770;2023-11-19T03:54:20;93231.88;;;4.39;100.00
59367;BME280;45163;47.690;11.770;2023-11-19T03:56:47;93229.19;;;4.39;100.00
59367;BME280;45163;47.690;11.770;2023-11-19T03:59:13;93233.81;;;4.38;100.00
59367;BME280;45163;47.690;11.770;2023-11-19T04:01:39;93219.19;;;4.36;100.00
59367;BME280;45163;47.690;11.770;2023-11-19T04:04:05;93217.97;;;4.44;100.00
59367;BME280;45163;47.690;11.770;2023-11-19T04:06:31;93218.09;;;4.26;100.00
59367;BME280;45163;47.690;11.770;2023-11-19T04:08:57;93206.16;;;4.23;100.00
59367;BME280;45163;47.690;11.770;2023-11-19T04:11:23;93206.94;;;4.20;100.00
59367;BME280;45163;47.690;11.770;2023-11-19T04:13:49;93201.97;;;4.12;100.00
59367;BME280;45163;47.690;11.770;2023-11-19T04:16:27;93218.78;;;4.37;100.00
59367;BME280;45163;47.690;11.770;2023-11-19T04:18:56;93219.56;;;4.34;100.00
59367;BME280;45163;47.690;11.770;2023-11-19T04:21:22;93223.22;;;4.65;100.00
59367;BME280;45163;47.690;11.770;2023-11-19T04:23:49;93227.56;;;4.97;100.00
59367;BME280;45163;47.690;11.770;2023-11-19T04:26:15;93217.38;;;5.12;100.00
59367;BME280;45163;47.690;11.770;2023-11-19T04:28:41;93228.75;;;4.96;100.00
59367;BME280;45163;47.690;11.770;2023-11-19T04:31:07;93212.19;;;4.90;100.00
59367;BME280;45163;47.690;11.770;2023-11-19T04:33:34;93209.28;;;5.12;100.00
59367;BME280;45163;47.690;11.770;2023-11-19T04:36:00;93206.88;;;5.17;100.00
59367;BME280;45163;47.690;11.770;2023-11-19T04:38:28;93204.09;;;5.28;100.00
59367;BME280;45163;47.690;11.770;2023-11-19T04:40:54;93201.22;;;5.42;100.00
59367;BME280;45163;47.690;11.770;2023-11-19T04:43:20;93210.88;;;5.43;100.00
59367;BME280;45163;47.690;11.770;2023-11-19T04:45:46;93200.47;;;5.38;100.00
59367;BME280;45163;47.690;11.770;2023-11-19T04:48:12;93207.53;;;5.32;100.00
59367;BME280;45163;47.690;11.770;2023-11-19T04:50:38;93213.16;;;5.48;100.00
59367;BME280;45163;47.690;11.770;2023-11-19T04:53:04;93217.28;;;5.60;100.00
59367;BME280;45163;47.690;11.770;2023-11-19T04:55:30;93222.69;;;5.60;100.00
59367;BME280;45163;47.690;11.770;2023-11-19T04:57:56;93220.53;;;5.44;100.00
59367;BME280;45163;47.690;11.770;2023-11-19T05:00:22;93223.53;;;5.54;100.00
59367;BME280;45163;47.690;11.770;2023-11-19T05:02:48;93229.22;;;5.63;100.00
59367;BME280;45163;47.690;11.770;2023-11-19T05:05:15;93221.53;;;5.58;100.00
59367;BME280;45163;47.690;11.770;2023-11-19T05:07:41;93235.00;;;5.65;100.00
59367;BME280;45163;47.690;11.770;2023-11-19T05:10:07;93234.03;;;5.48;100.00
59367;BME280;45163;47.690;11.770;2023-11-19T05:12:34;93236.28;;;5.53;100.00
59367;BME280;45163;47.690;11.770;2023-11-19T05:15:00;93241.25;;;5.58;100.00
59367;BME280;45163;47.690;11.770;2023-11-19T05:17:26;93248.78;;;5.43;100.00
59367;BME280;45163;47.690;11.770;2023-11-19T05:19:52;93253.47;;;5.39;100.00
59367;BME280;45163;47.690;11.770;2023-11-19T05:22:18;93268.25;;;5.28;100.00
59367;BME280;45163;47.690;11.770;2023-11-19T05:24:46;93257.53;;;5.17;100.00
59367;BME280;45163;47.690;11.770;2023-11-19T05:27:14;93264.53;;;5.14;100.00
59367;BME280;45163;47.690;11.770;2023-11-19T05:29:40;93264.16;;;5.12;100.00
59367;BME280;45163;47.690;11.770;2023-11-19T05:32:07;93269.13;;;5.17;100.00
59367;BME280;45163;47.690;11.770;2023-11-19T05:34:33;93268.28;;;5.24;100.00
59367;BME280;45163;47.690;11.770;2023-11-19T05:36:59;93273.25;;;5.33;100.00
59367;BME280;45163;47.690;11.770;2023-11-19T05:39:25;93277.13;;;5.32;100.00
59367;BME280;45163;47.690;11.770;2023-11-19T05:41:51;93267.88;;;5.25;100.00
59367;BME280;45163;47.690;11.770;2023-11-19T05:44:17;93284.88;;;5.26;100.00
59367;BME280;45163;47.690;11.770;2023-11-19T05:46:45;93272.47;;;5.32;100.00
59367;BME280;45163;47.690;11.770;2023-11-19T05:49:11;93272.41;;;5.39;100.00
59367;BME280;45163;47.690;11.770;2023-11-19T05:51:38;93266.19;;;5.39;100.00
59367;BME280;45163;47.690;11.770;2023-11-19T05:54:08;93272.34;;;5.43;100.00
59367;BME280;45163;47.690;11.770;2023-11-19T05:56:35;93286.59;;;5.50;100.00
59367;BME280;45163;47.690;11.770;2023-11-19T05:59:02;93254.28;;;5.33;100.00
59367;BME280;45163;47.690;11.770;2023-11-19T06:01:29;93254.66;;;5.35;100.00
59367;BME280;45163;47.690;11.770;2023-11-19T06:03:55;93278.50;;;5.47;100.00
59367;BME280;45163;47.690;11.770;2023-11-19T06:06:22;93270.00;;;5.48;100.00
59367;BME280;45163;47.690;11.770;2023-11-19T06:08:48;93272.59;;;5.56;100.00
59367;BME280;45163;47.690;11.770;2023-11-19T06:11:14;93276.09;;;5.56;100.00
59367;BME280;45163;47.690;11.770;2023-11-19T06:13:44;93291.88;;;5.65;100.00
59367;BME280;45163;47.690;11.770;2023-11-19T06:16:10;93281.38;;;5.67;100.00
59367;BME280;45163;47.690;11.770;2023-11-19T06:18:36;93286.09;;;5.59;100.00
59367;BME280;45163;47.690;11.770;2023-11-19T06:21:02;93268.84;;;5.80;100.00
59367;BME280;45163;47.690;11.770;2023-11-19T06:23:28;93268.53;;;5.74;100.00
59367;BME280;45163;47.690;11.770;2023-11-19T06:25:54;93274.13;;;5.98;100.00
59367;BME280;45163;47.690;11.770;2023-11-19T06:28:20;93268.78;;;5.87;100.00
59367;BME280;45163;47.690;11.770;2023-11-19T06:30:46;93292.88;;;6.12;100.00
59367;BME280;45163;47.690;11.770;2023-11-19T06:33:13;93280.91;;;6.40;100.00
59367;BME280;45163;47.690;11.770;2023-11-19T06:35:39;93299.13;;;7.17;100.00
59367;BME280;45163;47.690;11.770;2023-11-19T06:38:05;93281.16;;;7.70;100.00
59367;BME280;45163;47.690;11.770;2023-11-19T06:40:32;93304.97;;;7.63;100.00
59367;BME280;45163;47.690;11.770;2023-11-19T06:42:58;93287.13;;;7.62;100.00
59367;BME280;45163;47.690;11.770;2023-11-19T06:45:24;93291.63;;;8.12;100.00
59367;BME280;45163;47.690;11.770;2023-11-19T06:47:50;93298.78;;;8.02;100.00
59367;BME280;45163;47.690;11.770;2023-11-19T06:50:16;93306.19;;;8.02;100.00
59367;BME280;45163;47.690;11.770;2023-11-19T06:52:43;93290.91;;;7.88;100.00
59367;BME280;45163;47.690;11.770;2023-11-19T06:55:09;93312.38;;;8.22;100.00
59367;BME280;45163;47.690;11.770;2023-11-19T06:57:35;93311.69;;;8.18;100.00
59367;BME280;45163;47.690;11.770;2023-11-19T07:00:01;93310.66;;;8.12;100.00
59367;BME280;45163;47.690;11.770;2023-11-19T07:02:28;93314.53;;;8.11;100.00
59367;BME280;45163;47.690;11.770;2023-11-19T07:04:54;93297.88;;;8.29;100.00
59367;BME280;45163;47.690;11.770;2023-11-19T07:07:20;93315.06;;;8.45;100.00
59367;BME280;45163;47.690;11.770;2023-11-19T07:09:46;93327.81;;;8.48;100.00
59367;BME280;45163;47.690;11.770;2023-11-19T07:12:12;93332.81;;;8.30;100.00
59367;BME280;45163;47.690;11.770;2023-11-19T07:14:39;93310.88;;;8.41;100.00
59367;BME280;45163;47.690;11.770;2023-11-19T07:17:05;93304.16;;;8.65;100.00
59367;BME280;45163;47.690;11.770;2023-11-19T07:19:31;93328.06;;;8.74;100.00
59367;BME280;45163;47.690;11.770;2023-11-19T07:21:57;93334.41;;;8.67;100.00
59367;BME280;45163;47.690;11.770;2023-11-19T07:24:23;93344.59;;;8.63;100.00
59367;BME280;45163;47.690;11.770;2023-11-19T07:26:50;93332.41;;;8.88;100.00
59367;BME280;45163;47.690;11.770;2023-11-19T07:29:16;93340.47;;;9.11;100.00
59367;BME280;45163;47.690;11.770;2023-11-19T07:31:42;93335.50;;;9.06;100.00
59367;BME280;45163;47.690;11.770;2023-11-19T07:34:10;93332.41;;;8.88;100.00
59367;BME280;45163;47.690;11.770;2023-11-19T07:36:37;93335.75;;;8.95;100.00
59367;BME280;45163;47.690;11.770;2023-11-19T07:39:04;93348.06;;;8.84;100.00
59367;BME280;45163;47.690;11.770;2023-11-19T07:41:34;93346.09;;;8.84;100.00
59367;BME280;45163;47.690;11.770;2023-11-19T07:44:00;93349.78;;;9.10;100.00
59367;BME280;45163;47.690;11.770;2023-11-19T07:46:26;93361.44;;;9.11;100.00
59367;BME280;45163;47.690;11.770;2023-11-19T07:48:52;93356.25;;;9.00;100.00
59367;BME280;45163;47.690;11.770;2023-11-19T07:51:18;93354.22;;;9.04;100.00
59367;BME280;45163;47.690;11.770;2023-11-19T07:53:44;93348.69;;;9.08;100.00
59367;BME280;45163;47.690;11.770;2023-11-19T07:56:10;93349.78;;;9.10;100.00
59367;BME280;45163;47.690;11.770;2023-11-19T07:58:36;93340.34;;;9.15;100.00
59367;BME280;45163;47.690;11.770;2023-11-19T08:01:02;93338.81;;;9.14;100.00
59367;BME280;45163;47.690;11.770;2023-11-19T08:03:28;93326.59;;;9.38;100.00
59367;BME280;45163;47.690;11.770;2023-11-19T08:05:56;93326.41;;;9.45;100.00
59367;BME280;45163;47.690;11.770;2023-11-19T08:08:22;93322.31;;;9.54;100.00
59367;BME280;45163;47.690;11.770;2023-11-19T08:10:48;93325.81;;;9.54;100.00
59367;BME280;45163;47.690;11.770;2023-11-19T08:13:20;93325.72;;;9.41;100.00
59367;BME280;45163;47.690;11.770;2023-11-19T08:15:46;93335.88;;;9.41;100.00
59367;BME280;45163;47.690;11.770;2023-11-19T08:18:12;93325.47;;;9.36;100.00
59367;BME280;45163;47.690;11.770;2023-11-19T08:20:39;93325.31;;;9.43;100.00
59367;BME280;45163;47.690;11.770;2023-11-19T08:23:05;93319.41;;;9.44;100.00
59367;BME280;45163;47.690;11.770;2023-11-19T08:25:31;93328.44;;;9.58;100.00
59367;BME280;45163;47.690;11.770;2023-11-19T08:27:59;93331.34;;;9.51;100.00
59367;BME280;45163;47.690;11.770;2023-11-19T08:30:26;93324.63;;;9.39;100.00
59367;BME280;45163;47.690;11.770;2023-11-19T08:32:52;93332.63;;;9.46;100.00
59367;BME280;45163;47.690;11.770;2023-11-19T08:35:18;93323.34;;;9.43;100.00
59367;BME280;45163;47.690;11.770;2023-11-19T08:37:44;93314.41;;;9.43;100.00
59367;BME280;45163;47.690;11.770;2023-11-19T08:40:11;93312.44;;;9.60;100.00
59367;BME280;45163;47.690;11.770;2023-11-19T08:42:40;93314.63;;;9.65;100.00
59367;BME280;45163;47.690;11.770;2023-11-19T08:45:07;93318.47;;;9.67;100.00
59367;BME280;45163;47.690;11.770;2023-11-19T08:47:36;93323.84;;;9.71;100.00
59367;BME280;45163;47.690;11.770;2023-11-19T08:50:03;93328.75;;;9.76;100.00
59367;BME280;45163;47.690;11.770;2023-11-19T08:52:30;93332.41;;;9.86;100.00
59367;BME280;45163;47.690;11.770;2023-11-19T08:54:56;93334.94;;;9.93;100.00
59367;BME280;45163;47.690;11.770;2023-11-19T08:57:22;93339.94;;;10.11;100.00
59367;BME280;45163;47.690;11.770;2023-11-19T08:59:48;93341.06;;;10.42;100.00
59367;BME280;45163;47.690;11.770;2023-11-19T09:02:14;93331.81;;;10.65;100.00
59367;BME280;45163;47.690;11.770;2023-11-19T09:04:40;93341.69;;;10.88;100.00
59367;BME280;45163;47.690;11.770;2023-11-19T09:07:16;93342.66;;;10.94;100.00
59367;BME280;45163;47.690;11.770;2023-11-19T09:09:42;93333.38;;;10.79;100.00
59367;BME280;45163;47.690;11.770;2023-11-19T09:12:08;93339.69;;;10.63;100.00
59367;BME280;45163;47.690;11.770;2023-11-19T09:14:35;93324.94;;;10.73;100.00
59367;BME280;45163;47.690;11.770;2023-11-19T09:17:13;93339.69;;;10.63;100.00
59367;BME280;45163;47.690;11.770;2023-11-19T09:19:39;93332.81;;;10.59;100.00
59367;BME280;45163;47.690;11.770;2023-11-19T09:22:05;93333.03;;;10.77;100.00
59367;BME280;45163;47.690;11.770;2023-11-19T09:24:31;93345.63;;;11.00;100.00
59367;BME280;45163;47.690;11.770;2023-11-19T09:26:57;93345.41;;;11.07;100.00
59367;BME280;45163;47.690;11.770;2023-11-19T09:29:24;93343.13;;;10.93;100.00
59367;BME280;45163;47.690;11.770;2023-11-19T09:31:49;93342.25;;;10.96;100.00
59367;BME280;45163;47.690;11.770;2023-11-19T09:34:15;93343.75;;;10.84;100.00
59367;BME280;45163;47.690;11.770;2023-11-19T09:36:42;93334.56;;;10.91;100.00
59367;BME280;45163;47.690;11.770;2023-11-19T09:39:12;93327.84;;;10.95;100.00
59367;BME280;45163;47.690;11.770;2023-11-19T09:41:40;93326.53;;;11.00;100.00
59367;BME280;45163;47.690;11.770;2023-11-19T09:44:08;93315.81;;;11.06;100.00
59367;BME280;45163;47.690;11.770;2023-11-19T09:46:35;93328.69;;;11.18;100.00
59367;BME280;45163;47.690;11.770;2023-11-19T09:49:02;93326.28;;;11.20;100.00
59367;BME280;45163;47.690;11.770;2023-11-19T09:51:30;93325.84;;;11.34;100.00
59367;BME280;45163;47.690;11.770;2023-11-19T09:53:56;93329.13;;;11.42;100.00
59367;BME280;45163;47.690;11.770;2023-11-19T09:56:22;93328.84;;;11.62;100.00
59367;BME280;45163;47.690;11.770;2023-11-19T09:58:48;93310.75;;;11.42;100.00
59367;BME280;45163;47.690;11.770;2023-11-19T10:01:14;93313.06;;;11.18;100.00
59367;BME280;45163;47.690;11.770;2023-11-19T10:03:41;93323.78;;;11.13;100.00
59367;BME280;45163;47.690;11.770;2023-11-19T10:06:10;93312.75;;;11.29;100.00
59367;BME280;45163;47.690;11.770;2023-11-19T10:08:37;93313.38;;;11.46;100.00
59367;BME280;45163;47.690;11.770;2023-11-19T10:11:06;93317.09;;;11.39;100.00
59367;BME280;45163;47.690;11.770;2023-11-19T10:13:35;93312.75;;;11.29;100.00
59367;BME280;45163;47.690;11.770;2023-11-19T10:16:10;93312.53;;;11.11;100.00
59367;BME280;45163;47.690;11.770;2023-11-19T10:18:37;93309.78;;;10.98;100.00
59367;BME280;45163;47.690;11.770;2023-11-19T10:21:05;93305.09;;;11.11;100.00
59367;BME280;45163;47.690;11.770;2023-11-19T10:23:50;93308.94;;;11.01;100.00
59367;BME280;45163;47.690;11.770;2023-11-19T10:26:18;93303.13;;;11.12;100.00
59367;BME280;45163;47.690;11.770;2023-11-19T10:28:46;93304.31;;;10.98;100.00
59367;BME280;45163;47.690;11.770;2023-11-19T10:31:13;93300.63;;;11.05;100.00
59367;BME280;45163;47.690;11.770;2023-11-19T10:33:40;93310.25;;;10.96;100.00
59367;BME280;45163;47.690;11.770;2023-11-19T10:36:06;93316.91;;;10.83;100.00
59367;BME280;45163;47.690;11.770;2023-11-19T10:38:33;93306.75;;;10.83;100.00
59367;BME280;45163;47.690;11.770;2023-11-19T10:40:59;93315.44;;;10.78;100.00
59367;BME280;45163;47.690;11.770;2023-11-19T10:43:25;93299.72;;;10.82;100.00
59367;BME280;45163;47.690;11.770;2023-11-19T10:45:52;93298.00;;;11.01;100.00
59367;BME280;45163;47.690;11.770;2023-11-19T10:48:18;93294.72;;;11.19;100.00
59367;BME280;45163;47.690;11.770;2023-11-19T10:50:46;93289.34;;;11.15;100.00
59367;BME280;45163;47.690;11.770;2023-11-19T10:53:15;93293.84;;;11.09;100.00
59367;BME280;45163;47.690;11.770;2023-11-19T10:55:47;93300.72;;;10.88;100.00
59367;BME280;45163;47.690;11.770;2023-11-19T10:58:15;93295.94;;;10.92;100.00
59367;BME280;45163;47.690;11.770;2023-11-19T11:00:48;93309.78;;;10.85;100.00
59367;BME280;45163;47.690;11.770;2023-11-19T11:03:21;93306.41;;;10.81;100.00
59367;BME280;45163;47.690;11.770;2023-11-19T11:05:52;93303.66;;;10.81;100.00
59367;BME280;45163;47.690;11.770;2023-11-19T11:08:20;93314.59;;;10.81;100.00
59367;BME280;45163;47.690;11.770;2023-11-19T11:10:54;93309.34;;;10.74;100.00
59367;BME280;45163;47.690;11.770;2023-11-19T11:13:22;93304.97;;;10.77;100.00
59367;BME280;45163;47.690;11.770;2023-11-19T11:15:55;93304.97;;;10.64;100.00
59367;BME280;45163;47.690;11.770;2023-11-19T11:18:22;93308.03;;;10.66;100.00
59367;BME280;45163;47.690;11.770;2023-11-19T11:20:52;93303.25;;;10.83;100.00
59367;BME280;45163;47.690;11.770;2023-11-19T11:23:33;93308.81;;;10.79;100.00
59367;BME280;45163;47.690;11.770;2023-11-19T11:28:55;93310.72;;;10.53;100.00
59367;BME280;45163;47.690;11.770;2023-11-19T11:34:56;93313.13;;;10.51;100.00
59367;BME280;45163;47.690;11.770;2023-11-19T11:37:32;93303.75;;;10.65;100.00
59367;BME280;45163;47.690;11.770;2023-11-19T11:40:01;93315.44;;;10.78;100.00
59367;BME280;45163;47.690;11.770;2023-11-19T11:42:32;93312.84;;;10.75;100.00
59367;BME280;45163;47.690;11.770;2023-11-19T11:50:12;93299.22;;;11.00;100.00
59367;BME280;45163;47.690;11.770;2023-11-19T11:55:35;93300.63;;;11.05;100.00
59367;BME280;45163;47.690;11.770;2023-11-19T11:58:03;93283.88;;;11.15;100.00
59367;BME280;45163;47.690;11.770;2023-11-19T12:00:37;93278.00;;;11.30;100.00
59367;BME280;45163;47.690;11.770;2023-11-19T12:03:04;93280.41;;;11.15;100.00
59367;BME280;45163;47.690;11.770;2023-11-19T12:05:30;93279.53;;;11.18;100.00
59367;BME280;45163;47.690;11.770;2023-11-19T12:08:06;93279.97;;;11.16;100.00
59367;BME280;45163;47.690;11.770;2023-11-19T12:11:00;93278.22;;;11.10;100.00
59367;BME280;45163;47.690;11.770;2023-11-19T12:13:47;93276.59;;;11.00;100.00
59367;BME280;45163;47.690;11.770;2023-11-19T12:16:18;93269.59;;;10.86;100.00
59367;BME280;45163;47.690;11.770;2023-11-19T12:18:44;93261.50;;;10.95;100.00
59367;BME280;45163;47.690;11.770;2023-11-19T12:21:10;93259.97;;;10.81;100.00
59367;BME280;45163;47.690;11.770;2023-11-19T12:23:46;93255.94;;;10.98;100.00
59367;BME280;45163;47.690;11.770;2023-11-19T12:26:41;93253.91;;;11.50;100.00
59367;BME280;45163;47.690;11.770;2023-11-19T12:29:07;93252.22;;;12.00;100.00
59367;BME280;45163;47.690;11.770;2023-11-19T12:31:34;93230.25;;;12.35;100.00
59367;BME280;45163;47.690;11.770;2023-11-19T12:34:05;93221.84;;;12.29;100.00
59367;BME280;45163;47.690;11.770;2023-11-19T12:36:31;93234.00;;;12.28;100.00
59367;BME280;45163;47.690;11.770;2023-11-19T12:38:57;93216.28;;;11.76;100.00
59367;BME280;45163;47.690;11.770;2023-11-19T12:41:24;93232.88;;;11.82;100.00
59367;BME280;45163;47.690;11.770;2023-11-19T12:43:50;93221.81;;;11.63;100.00
59367;BME280;45163;47.690;11.770;2023-11-19T12:46:23;93208.72;;;11.58;100.00
59367;BME280;45163;47.690;11.770;2023-11-19T12:48:50;93194.06;;;12.40;100.00
59367;BME280;45163;47.690;11.770;2023-11-19T12:51:16;93210.00;;;12.32;100.00
59367;BME280;45163;47.690;11.770;2023-11-19T12:53:52;93193.44;;;11.70;100.00
59367;BME280;45163;47.690;11.770;2023-11-19T12:56:21;93206.53;;;11.53;100.00
59367;BME280;45163;47.690;11.770;2023-11-19T12:58:47;93205.06;;;11.61;100.00
59367;BME280;45163;47.690;11.770;2023-11-19T13:01:20;93203.50;;;11.73;100.00
59367;BME280;45163;47.690;11.770;2023-11-19T13:03:47;93203.31;;;11.67;100.00